createdAt,value
2018-03-04T00:00:55.199Z,1001.8
2018-03-04T00:02:04.907Z,1001.86
2018-03-04T00:03:14.865Z,1001.85
2018-03-04T00:04:24.568Z,1001.82
2018-03-04T00:05:34.029Z,1001.81
2018-03-04T00:06:43.718Z,1001.84
2018-03-04T00:07:53.673Z,1001.82
2018-03-04T00:09:03.632Z,1001.87
2018-03-04T00:10:13.065Z,1001.84
2018-03-04T00:11:22.776Z,1001.83
2018-03-04T00:12:32.732Z,1001.8
2018-03-04T00:13:42.677Z,1001.82
2018-03-04T00:14:52.376Z,1001.85
2018-03-04T00:16:02.337Z,1001.85
2018-03-04T00:17:12.043Z,1001.85
2018-03-04T00:18:21.740Z,1001.87
2018-03-04T00:19:31.431Z,1001.85
2018-03-04T00:20:41.407Z,1001.87
2018-03-04T00:21:51.357Z,1001.88
2018-03-04T00:23:00.781Z,1001.89
2018-03-04T00:24:10.518Z,1001.9
2018-03-04T00:25:20.241Z,1001.89
2018-03-04T00:26:30.188Z,1001.95
2018-03-04T00:27:39.926Z,1001.98
2018-03-04T00:28:50.001Z,1001.99
2018-03-04T00:29:59.958Z,1002.03
2018-03-04T00:31:09.664Z,1002.04
2018-03-04T00:32:19.360Z,1002.01
2018-03-04T00:33:28.794Z,1002.07
2018-03-04T00:34:38.482Z,1002.07
2018-03-04T00:35:48.437Z,1002.04
2018-03-04T00:36:57.621Z,1002.1
2018-03-04T00:38:07.325Z,1002.21
2018-03-04T00:39:17.017Z,1002.15
2018-03-04T00:40:26.983Z,1002.11
2018-03-04T00:41:36.174Z,1002.06
2018-03-04T00:42:46.148Z,1002.1
2018-03-04T00:43:55.585Z,1002.09
2018-03-04T00:45:05.543Z,1002.13
2018-03-04T00:46:15.497Z,1002.03
2018-03-04T00:47:25.184Z,1002.09
2018-03-04T00:48:34.868Z,1002.02
2018-03-04T00:49:44.825Z,1002.07
2018-03-04T00:50:54.783Z,1002.06
2018-03-04T00:52:04.728Z,1002.07
2018-03-04T00:53:14.435Z,1002.05
2018-03-04T00:54:24.171Z,1001.97
2018-03-04T00:55:33.868Z,1002.01
2018-03-04T00:56:43.562Z,1002.02
2018-03-04T00:57:53.769Z,1002.02
2018-03-04T00:59:03.718Z,1001.97
2018-03-04T01:00:13.658Z,1001.94
2018-03-04T01:01:23.357Z,1001.92
2018-03-04T01:02:32.787Z,1001.87
2018-03-04T01:03:42.753Z,1001.87
2018-03-04T01:04:52.699Z,1001.85
2018-03-04T01:06:02.126Z,1001.83
2018-03-04T01:07:12.080Z,1001.79
2018-03-04T01:08:21.522Z,1001.76
2018-03-04T01:09:31.208Z,1001.7
2018-03-04T01:10:41.168Z,1001.72
2018-03-04T01:11:50.876Z,1001.75
2018-03-04T01:13:00.588Z,1001.73
2018-03-04T01:14:10.551Z,1001.69
2018-03-04T01:15:19.729Z,1001.68
2018-03-04T01:16:29.416Z,1001.7
2018-03-04T01:17:39.377Z,1001.68
2018-03-04T01:18:48.557Z,1001.66
2018-03-04T01:19:58.276Z,1001.67
2018-03-04T01:21:08.474Z,1001.63
2018-03-04T01:22:18.164Z,1001.57
2018-03-04T01:23:28.124Z,1001.59
2018-03-04T01:24:37.819Z,1001.59
2018-03-04T01:25:47.242Z,1001.6
2018-03-04T01:26:57.193Z,1001.6
2018-03-04T01:28:07.142Z,1001.57
2018-03-04T01:29:16.567Z,1001.55
2018-03-04T01:30:26.510Z,1001.5
2018-03-04T01:31:36.214Z,1001.47
2018-03-04T01:32:46.217Z,1001.5
2018-03-04T01:33:56.171Z,1001.46
2018-03-04T01:35:05.855Z,1001.53
2018-03-04T01:36:15.797Z,1001.51
2018-03-04T01:37:25.225Z,1001.52
2018-03-04T01:38:35.195Z,1001.54
2018-03-04T01:39:44.874Z,1001.6
2018-03-04T01:40:54.565Z,1001.63
2018-03-04T01:42:04.022Z,1001.68
2018-03-04T01:43:13.966Z,1001.66
2018-03-04T01:44:23.921Z,1001.71
2018-03-04T01:45:33.870Z,1001.67
2018-03-04T01:46:43.298Z,1001.69
2018-03-04T01:47:53.248Z,1001.62
2018-03-04T01:49:03.362Z,1001.62
2018-03-04T01:50:13.058Z,1001.61
2018-03-04T01:51:23.008Z,1001.57
2018-03-04T01:52:32.439Z,1001.61
2018-03-04T01:53:42.134Z,1001.55
2018-03-04T01:54:52.092Z,1001.55
2018-03-04T01:56:01.521Z,1001.58
2018-03-04T01:57:10.945Z,1001.52
2018-03-04T01:58:20.647Z,1001.52
2018-03-04T01:59:30.325Z,1001.54
2018-03-04T02:00:39.761Z,1001.51
2018-03-04T02:01:49.706Z,1001.56
2018-03-04T02:02:59.388Z,1001.57
2018-03-04T02:04:08.308Z,1001.54
2018-03-04T02:05:18.262Z,1001.5
2018-03-04T02:06:27.691Z,1001.49
2018-03-04T02:07:37.372Z,1001.56
2018-03-04T02:08:47.053Z,1001.51
2018-03-04T02:09:56.229Z,1001.54
2018-03-04T02:11:06.173Z,1001.53
2018-03-04T02:12:15.882Z,1001.51
2018-03-04T02:13:25.308Z,1001.44
2018-03-04T02:14:35.012Z,1001.5
2018-03-04T02:15:44.953Z,1001.5
2018-03-04T02:16:54.653Z,1001.55
2018-03-04T02:18:04.648Z,1001.56
2018-03-04T02:19:14.339Z,1001.54
2018-03-04T02:20:24.286Z,1001.54
2018-03-04T02:21:33.716Z,1001.56
2018-03-04T02:22:43.659Z,1001.58
2018-03-04T02:23:53.140Z,1001.54
2018-03-04T02:25:02.846Z,1001.58
2018-03-04T02:26:12.285Z,1001.56
2018-03-04T02:27:22.237Z,1001.5
2018-03-04T02:28:32.180Z,1001.55
2018-03-04T02:29:42.126Z,1001.6
2018-03-04T02:30:52.084Z,1001.54
2018-03-04T02:32:01.572Z,1001.58
2018-03-04T02:33:11.531Z,1001.58
2018-03-04T02:34:21.240Z,1001.62
2018-03-04T02:35:31.204Z,1001.61
2018-03-04T02:36:40.639Z,1001.7
2018-03-04T02:37:50.332Z,1001.7
2018-03-04T02:39:00.310Z,1001.67
2018-03-04T02:40:10.528Z,1001.72
2018-03-04T02:41:20.484Z,1001.66
2018-03-04T02:42:30.440Z,1001.65
2018-03-04T02:43:40.150Z,1001.64
2018-03-04T02:44:49.854Z,1001.6
2018-03-04T02:46:00.057Z,1001.57
2018-03-04T02:47:09.759Z,1001.57
2018-03-04T02:48:19.261Z,1001.56
2018-03-04T02:49:29.240Z,1001.49
2018-03-04T02:50:39.208Z,1001.52
2018-03-04T02:51:49.472Z,1001.52
2018-03-04T02:52:59.440Z,1001.52
2018-03-04T02:54:09.162Z,1001.54
2018-03-04T02:55:18.879Z,1001.58
2018-03-04T02:56:28.844Z,1001.56
2018-03-04T02:57:38.807Z,1001.56
2018-03-04T02:58:48.254Z,1001.49
2018-03-04T02:59:57.966Z,1001.52
2018-03-04T03:01:07.692Z,1001.52
2018-03-04T03:02:17.388Z,1001.54
2018-03-04T03:03:26.561Z,1001.56
2018-03-04T03:04:36.546Z,1001.5
2018-03-04T03:05:46.255Z,1001.53
2018-03-04T03:06:55.960Z,1001.56
2018-03-04T03:08:05.660Z,1001.51
2018-03-04T03:09:15.617Z,1001.52
2018-03-04T03:10:25.564Z,1001.51
2018-03-04T03:11:35.254Z,1001.45
2018-03-04T03:12:44.978Z,1001.45
2018-03-04T03:13:54.926Z,1001.44
2018-03-04T03:15:04.609Z,1001.42
2018-03-04T03:16:14.638Z,1001.45
2018-03-04T03:17:24.058Z,1001.43
2018-03-04T03:18:33.478Z,1001.47
2018-03-04T03:19:43.167Z,1001.41
2018-03-04T03:20:53.111Z,1001.45
2018-03-04T03:22:02.866Z,1001.43
2018-03-04T03:23:12.564Z,1001.44
2018-03-04T03:24:22.252Z,1001.44
2018-03-04T03:25:31.962Z,1001.49
2018-03-04T03:26:41.655Z,1001.43
2018-03-04T03:27:51.600Z,1001.42
2018-03-04T03:29:01.572Z,1001.4
2018-03-04T03:30:11.259Z,1001.4
2018-03-04T03:31:21.226Z,1001.42
2018-03-04T03:32:30.664Z,1001.42
2018-03-04T03:33:40.091Z,1001.45
2018-03-04T03:34:49.784Z,1001.4
2018-03-04T03:35:59.207Z,1001.39
2018-03-04T03:37:08.901Z,1001.4
2018-03-04T03:38:19.000Z,1001.45
2018-03-04T03:39:28.689Z,1001.48
2018-03-04T03:40:38.394Z,1001.44
2018-03-04T03:41:47.563Z,1001.43
2018-03-04T03:42:57.509Z,1001.41
2018-03-04T03:44:06.940Z,1001.42
2018-03-04T03:45:16.375Z,1001.42
2018-03-04T03:46:26.115Z,1001.4
2018-03-04T03:47:35.546Z,1001.34
2018-03-04T03:48:45.497Z,1001.39
2018-03-04T03:49:55.443Z,1001.39
2018-03-04T03:51:05.135Z,1001.33
2018-03-04T03:52:14.561Z,1001.32
2018-03-04T03:53:24.511Z,1001.36
2018-03-04T03:54:34.202Z,1001.38
2018-03-04T03:55:44.414Z,1001.39
2018-03-04T03:56:54.103Z,1001.4
2018-03-04T03:58:04.276Z,1001.39
2018-03-04T03:59:13.964Z,1001.39
2018-03-04T04:00:23.645Z,1001.36
2018-03-04T04:01:33.600Z,1001.35
2018-03-04T04:02:43.544Z,1001.36
2018-03-04T04:03:53.509Z,1001.32
2018-03-04T04:05:03.449Z,1001.34
2018-03-04T04:06:13.656Z,1001.27
2018-03-04T04:07:23.610Z,1001.27
2018-03-04T04:08:33.557Z,1001.26
2018-03-04T04:09:43.242Z,1001.23
2018-03-04T04:10:52.937Z,1001.15
2018-03-04T04:12:02.633Z,1001.17
2018-03-04T04:13:12.066Z,1001.13
2018-03-04T04:14:21.756Z,1001.07
2018-03-04T04:15:31.705Z,1001.06
2018-03-04T04:16:41.386Z,1001.06
2018-03-04T04:17:50.561Z,1001.15
2018-03-04T04:19:00.245Z,1001.16
2018-03-04T04:20:09.932Z,1001.17
2018-03-04T04:21:19.947Z,1001.14
2018-03-04T04:22:29.945Z,1001.16
2018-03-04T04:23:39.899Z,1001.14
2018-03-04T04:24:49.848Z,1001.14
2018-03-04T04:25:59.012Z,1001.14
2018-03-04T04:27:08.452Z,1001.18
2018-03-04T04:28:18.401Z,1001.21
2018-03-04T04:29:28.350Z,1001.21
2018-03-04T04:30:38.298Z,1001.22
2018-03-04T04:31:48.278Z,1001.18
2018-03-04T04:32:58.340Z,1001.2
2018-03-04T04:34:08.339Z,1001.21
2018-03-04T04:35:18.295Z,1001.25
2018-03-04T04:36:28.241Z,1001.19
2018-03-04T04:37:38.185Z,1001.17
2018-03-04T04:38:48.127Z,1001.16
2018-03-04T04:39:58.070Z,1001.17
2018-03-04T04:41:08.035Z,1001.2
2018-03-04T04:42:17.717Z,1001.19
2018-03-04T04:43:27.400Z,1001.19
2018-03-04T04:44:36.858Z,1001.19
2018-03-04T04:45:46.291Z,1001.15
2018-03-04T04:46:56.249Z,1001.18
2018-03-04T04:48:06.185Z,1001.18
2018-03-04T04:49:16.129Z,1001.18
2018-03-04T04:50:26.102Z,1001.18
2018-03-04T04:51:35.789Z,1001.13
2018-03-04T04:52:45.480Z,1001.08
2018-03-04T04:53:54.957Z,1001.09
2018-03-04T04:55:04.950Z,1001.03
2018-03-04T04:56:14.913Z,1001.06
2018-03-04T04:57:24.092Z,1001.07
2018-03-04T04:58:34.290Z,1001.1
2018-03-04T04:59:44.229Z,1001.07
2018-03-04T05:00:53.405Z,1001.06
2018-03-04T05:02:02.847Z,1001.08
2018-03-04T05:03:12.538Z,1001.02
2018-03-04T05:04:22.229Z,1001.05
2018-03-04T05:05:32.171Z,1001.08
2018-03-04T05:06:41.613Z,1001.04
2018-03-04T05:07:51.551Z,1001.03
2018-03-04T05:09:01.235Z,1001.05
2018-03-04T05:10:11.187Z,1001.06
2018-03-04T05:11:20.606Z,1001.04
2018-03-04T05:12:30.309Z,1001.09
2018-03-04T05:13:39.993Z,1001.04
2018-03-04T05:14:49.935Z,1001.03
2018-03-04T05:15:59.378Z,1001.02
2018-03-04T05:17:09.061Z,1001.03
2018-03-04T05:18:18.752Z,1001.02
2018-03-04T05:19:28.185Z,1001.07
2018-03-04T05:20:37.611Z,1001.1
2018-03-04T05:21:46.778Z,1001.01
2018-03-04T05:22:56.721Z,1001
2018-03-04T05:24:06.671Z,1001.03
2018-03-04T05:25:16.384Z,1000.99
2018-03-04T05:26:26.071Z,1000.98
2018-03-04T05:27:35.762Z,1001.03
2018-03-04T05:28:45.440Z,1001.01
2018-03-04T05:29:55.131Z,1001.04
2018-03-04T05:31:04.816Z,1001.04
2018-03-04T05:32:14.240Z,1001.08
2018-03-04T05:33:23.922Z,1001.11
2018-03-04T05:34:33.606Z,1001.13
2018-03-04T05:35:43.554Z,1001.1
2018-03-04T05:36:53.732Z,1001.16
2018-03-04T05:38:03.166Z,1001.19
2018-03-04T05:39:13.104Z,1001.23
2018-03-04T05:40:22.804Z,1001.21
2018-03-04T05:41:33.014Z,1001.18
2018-03-04T05:42:42.956Z,1001.27
2018-03-04T05:43:52.647Z,1001.18
2018-03-04T05:45:02.588Z,1001.18
2018-03-04T05:46:12.548Z,1001.11
2018-03-04T05:47:22.241Z,1001.12
2018-03-04T05:48:31.678Z,1001.08
2018-03-04T05:49:41.373Z,1001.05
2018-03-04T05:50:51.060Z,1001.09
2018-03-04T05:52:00.752Z,1001.1
2018-03-04T05:53:10.433Z,1001.07
2018-03-04T05:54:20.379Z,1001.08
2018-03-04T05:55:30.326Z,1001.04
2018-03-04T05:56:40.032Z,1001.09
2018-03-04T05:57:49.451Z,1001.08
2018-03-04T05:58:59.402Z,1001.11
2018-03-04T06:00:08.833Z,1001.09
2018-03-04T06:01:18.510Z,1001.09
2018-03-04T06:02:27.963Z,1001.11
2018-03-04T06:03:37.402Z,1001.09
2018-03-04T06:04:47.345Z,1001.13
2018-03-04T06:05:56.512Z,1001.11
2018-03-04T06:07:06.704Z,1001.14
2018-03-04T06:08:16.655Z,1001.14
2018-03-04T06:09:26.348Z,1001.16
2018-03-04T06:10:36.040Z,1001.2
2018-03-04T06:11:45.998Z,1001.18
2018-03-04T06:12:55.966Z,1001.2
2018-03-04T06:14:05.396Z,1001.16
2018-03-04T06:15:15.340Z,1001.18
2018-03-04T06:16:25.031Z,1001.21
2018-03-04T06:17:34.725Z,1001.21
2018-03-04T06:18:44.438Z,1001.17
2018-03-04T06:19:54.141Z,1001.18
2018-03-04T06:21:04.103Z,1001.13
2018-03-04T06:22:13.788Z,1001.16
2018-03-04T06:23:23.740Z,1001.19
2018-03-04T06:24:33.685Z,1001.21
2018-03-04T06:25:43.767Z,1001.25
2018-03-04T06:26:53.204Z,1001.18
2018-03-04T06:28:02.900Z,1001.26
2018-03-04T06:29:12.858Z,1001.22
2018-03-04T06:30:22.813Z,1001.28
2018-03-04T06:31:32.757Z,1001.28
2018-03-04T06:32:42.462Z,1001.28
2018-03-04T06:33:51.890Z,1001.27
2018-03-04T06:35:01.846Z,1001.28
2018-03-04T06:36:11.536Z,1001.28
2018-03-04T06:37:20.701Z,1001.24
2018-03-04T06:38:30.146Z,1001.21
2018-03-04T06:39:39.578Z,1001.27
2018-03-04T06:40:49.264Z,1001.25
2018-03-04T06:41:58.960Z,1001.26
2018-03-04T06:43:08.912Z,1001.23
2018-03-04T06:44:19.001Z,1001.24
2018-03-04T06:45:28.953Z,1001.27
2018-03-04T06:46:38.906Z,1001.33
2018-03-04T06:47:48.910Z,1001.25
2018-03-04T06:48:58.096Z,1001.23
2018-03-04T06:50:08.062Z,1001.24
2018-03-04T06:51:17.771Z,1001.29
2018-03-04T06:52:27.453Z,1001.24
2018-03-04T06:53:37.145Z,1001.24
2018-03-04T06:54:47.095Z,1001.24
2018-03-04T06:55:56.528Z,1001.25
2018-03-04T06:57:06.482Z,1001.19
2018-03-04T06:58:16.167Z,1001.19
2018-03-04T06:59:25.897Z,1001.17
2018-03-04T07:00:35.580Z,1001.17
2018-03-04T07:01:45.269Z,1001.15
2018-03-04T07:02:54.953Z,1001.16
2018-03-04T07:04:04.688Z,1001.06
2018-03-04T07:05:14.654Z,1001.09
2018-03-04T07:06:24.342Z,1001.03
2018-03-04T07:07:34.034Z,1001.03
2018-03-04T07:08:43.741Z,1000.96
2018-03-04T07:09:53.202Z,1000.99
2018-03-04T07:11:02.374Z,1001.03
2018-03-04T07:12:12.066Z,1001
2018-03-04T07:13:22.021Z,1000.99
2018-03-04T07:14:31.729Z,1000.95
2018-03-04T07:15:41.164Z,1000.96
2018-03-04T07:16:50.853Z,1000.93
2018-03-04T07:18:00.766Z,1000.94
2018-03-04T07:19:10.469Z,1000.91
2018-03-04T07:20:20.163Z,1000.92
2018-03-04T07:21:29.598Z,1000.91
2018-03-04T07:22:39.557Z,1000.95
2018-03-04T07:23:49.253Z,1000.92
2018-03-04T07:24:58.679Z,1000.92
2018-03-04T07:26:08.619Z,1000.89
2018-03-04T07:27:18.575Z,1000.87
2018-03-04T07:28:28.537Z,1000.87
2018-03-04T07:29:38.248Z,1000.83
2018-03-04T07:30:47.787Z,1000.85
2018-03-04T07:31:57.481Z,1000.83
2018-03-04T07:33:07.195Z,1000.83
2018-03-04T07:34:17.156Z,1000.84
2018-03-04T07:35:27.141Z,1000.85
2018-03-04T07:36:36.839Z,1000.82
2018-03-04T07:37:46.793Z,1000.87
2018-03-04T07:38:56.754Z,1000.81
2018-03-04T07:40:06.699Z,1000.79
2018-03-04T07:41:16.141Z,1000.79
2018-03-04T07:42:26.092Z,1000.75
2018-03-04T07:43:36.064Z,1000.71
2018-03-04T07:44:45.800Z,1000.71
2018-03-04T07:45:55.765Z,1000.69
2018-03-04T07:47:05.458Z,1000.66
2018-03-04T07:48:15.443Z,1000.68
2018-03-04T07:49:25.387Z,1000.65
2018-03-04T07:50:35.076Z,1000.65
2018-03-04T07:51:44.773Z,1000.64
2018-03-04T07:52:54.723Z,1000.65
2018-03-04T07:54:04.656Z,1000.71
2018-03-04T07:55:14.622Z,1000.69
2018-03-04T07:56:24.598Z,1000.67
2018-03-04T07:57:34.289Z,1000.73
2018-03-04T07:58:43.980Z,1000.71
2018-03-04T07:59:53.674Z,1000.68
2018-03-04T08:01:03.634Z,1000.7
2018-03-04T08:02:13.578Z,1000.7
2018-03-04T08:03:23.274Z,1000.64
2018-03-04T08:04:33.249Z,1000.62
2018-03-04T08:05:42.423Z,1000.62
2018-03-04T08:06:52.380Z,1000.63
2018-03-04T08:08:02.339Z,1000.65
2018-03-04T08:09:12.331Z,1000.61
2018-03-04T08:10:21.771Z,1000.62
2018-03-04T08:11:31.482Z,1000.62
2018-03-04T08:12:41.210Z,1000.65
2018-03-04T08:13:50.935Z,1000.59
2018-03-04T08:15:00.896Z,1000.65
2018-03-04T08:16:10.860Z,1000.66
2018-03-04T08:17:20.813Z,1000.62
2018-03-04T08:18:30.033Z,1000.59
2018-03-04T08:19:39.787Z,1000.54
2018-03-04T08:20:49.243Z,1000.56
2018-03-04T08:21:59.210Z,1000.63
2018-03-04T08:23:08.962Z,1000.66
2018-03-04T08:24:18.145Z,1000.67
2018-03-04T08:25:28.154Z,1000.7
2018-03-04T08:26:38.124Z,1000.68
2018-03-04T08:27:48.083Z,1000.63
2018-03-04T08:28:57.785Z,1000.58
2018-03-04T08:30:07.490Z,1000.53
2018-03-04T08:31:16.942Z,1000.56
2018-03-04T08:32:26.377Z,1000.55
2018-03-04T08:33:36.073Z,1000.62
2018-03-04T08:34:46.057Z,1000.59
2018-03-04T08:35:55.781Z,1000.59
2018-03-04T08:37:05.771Z,1000.51
2018-03-04T08:38:15.731Z,1000.57
2018-03-04T08:39:25.439Z,1000.58
2018-03-04T08:40:34.939Z,1000.57
2018-03-04T08:41:44.390Z,1000.48
2018-03-04T08:42:54.094Z,1000.53
2018-03-04T08:44:04.066Z,1000.43
2018-03-04T08:45:13.768Z,1000.46
2018-03-04T08:46:23.742Z,1000.5
2018-03-04T08:47:33.706Z,1000.48
2018-03-04T08:48:43.660Z,1000.48
2018-03-04T08:49:53.366Z,1000.48
2018-03-04T08:51:03.335Z,1000.49
2018-03-04T08:52:13.297Z,1000.51
2018-03-04T08:53:23.250Z,1000.46
2018-03-04T08:54:32.952Z,1000.47
2018-03-04T08:55:42.653Z,1000.41
2018-03-04T08:56:52.351Z,1000.4
2018-03-04T08:58:02.327Z,1000.43
2018-03-04T08:59:12.249Z,1000.43
2018-03-04T09:00:22.197Z,1000.43
2018-03-04T09:01:32.191Z,1000.41
2018-03-04T09:02:41.889Z,1000.38
2018-03-04T09:03:51.867Z,1000.43
2018-03-04T09:05:01.891Z,1000.4
2018-03-04T09:06:11.605Z,1000.36
2018-03-04T09:07:21.576Z,1000.31
2018-03-04T09:08:31.274Z,1000.3
2018-03-04T09:09:40.509Z,1000.26
2018-03-04T09:10:49.954Z,1000.25
2018-03-04T09:11:59.916Z,1000.25
2018-03-04T09:13:09.884Z,1000.32
2018-03-04T09:14:19.861Z,1000.25
2018-03-04T09:15:29.567Z,1000.26
2018-03-04T09:16:39.537Z,1000.23
2018-03-04T09:17:49.518Z,1000.26
2018-03-04T09:18:59.304Z,1000.2
2018-03-04T09:20:09.260Z,1000.2
2018-03-04T09:21:18.980Z,1000.23
2018-03-04T09:22:28.692Z,1000.18
2018-03-04T09:23:38.390Z,1000.11
2018-03-04T09:24:48.348Z,1000.15
2018-03-04T09:25:58.066Z,1000.15
2018-03-04T09:27:08.026Z,1000.13
2018-03-04T09:28:18.001Z,1000.12
2018-03-04T09:29:27.835Z,1000.18
2018-03-04T09:30:37.274Z,1000.12
2018-03-04T09:31:46.732Z,1000.15
2018-03-04T09:32:56.712Z,1000.16
2018-03-04T09:34:06.761Z,1000.15
2018-03-04T09:35:16.818Z,1000.22
2018-03-04T09:36:26.790Z,1000.15
2018-03-04T09:37:36.481Z,1000.16
2018-03-04T09:38:46.462Z,1000.12
2018-03-04T09:39:56.415Z,1000.15
2018-03-04T09:41:06.379Z,1000.16
2018-03-04T09:42:16.353Z,1000.11
2018-03-04T09:43:26.325Z,1000.12
2018-03-04T09:44:36.306Z,1000.14
2018-03-04T09:45:46.025Z,1000.12
2018-03-04T09:46:55.997Z,1000.15
2018-03-04T09:48:05.969Z,1000.14
2018-03-04T09:49:15.985Z,1000.15
2018-03-04T09:50:25.710Z,1000.11
2018-03-04T09:51:35.416Z,1000.14
2018-03-04T09:52:45.118Z,1000.11
2018-03-04T09:53:54.819Z,1000.08
2018-03-04T09:55:04.790Z,1000.1
2018-03-04T09:56:14.499Z,1000.15
2018-03-04T09:57:23.940Z,1000.14
2018-03-04T09:58:33.927Z,1000.16
2018-03-04T09:59:43.369Z,1000.19
2018-03-04T10:00:53.075Z,1000.2
2018-03-04T10:02:02.266Z,1000.19
2018-03-04T10:03:12.138Z,1000.14
2018-03-04T10:04:22.120Z,1000.08
2018-03-04T10:05:32.100Z,1000.05
2018-03-04T10:06:41.313Z,1000.1
2018-03-04T10:07:51.271Z,1000.06
2018-03-04T10:09:01.259Z,1000.06
2018-03-04T10:10:10.974Z,1000.07
2018-03-04T10:11:20.689Z,1000.1
2018-03-04T10:12:30.399Z,1000.07
2018-03-04T10:13:40.355Z,1000.02
2018-03-04T10:14:49.822Z,1000.01
2018-03-04T10:15:59.340Z,1000.03
2018-03-04T10:17:09.065Z,999.95
2018-03-04T10:18:19.050Z,1000.01
2018-03-04T10:19:28.765Z,999.99
2018-03-04T10:20:38.757Z,999.97
2018-03-04T10:21:48.731Z,999.99
2018-03-04T10:22:58.702Z,999.98
2018-03-04T10:24:08.415Z,999.98
2018-03-04T10:25:18.124Z,999.94
2018-03-04T10:26:28.100Z,999.96
2018-03-04T10:27:37.554Z,999.92
2018-03-04T10:28:47.536Z,999.98
2018-03-04T10:29:57.000Z,999.9
2018-03-04T10:31:06.973Z,999.87
2018-03-04T10:32:16.930Z,999.87
2018-03-04T10:33:26.909Z,999.91
2018-03-04T10:34:36.609Z,999.88
2018-03-04T10:35:46.586Z,999.86
2018-03-04T10:36:56.573Z,999.89
2018-03-04T10:38:06.553Z,999.81
2018-03-04T10:39:16.544Z,999.84
2018-03-04T10:40:26.512Z,999.78
2018-03-04T10:41:36.511Z,999.77
2018-03-04T10:42:46.479Z,999.75
2018-03-04T10:43:56.474Z,999.7
2018-03-04T10:45:06.448Z,999.67
2018-03-04T10:46:16.159Z,999.69
2018-03-04T10:47:25.854Z,999.69
2018-03-04T10:48:35.571Z,999.69
2018-03-04T10:49:44.777Z,999.61
2018-03-04T10:50:54.233Z,999.61
2018-03-04T10:52:03.952Z,999.6
2018-03-04T10:53:13.657Z,999.57
2018-03-04T10:54:23.647Z,999.54
2018-03-04T10:55:33.885Z,999.59
2018-03-04T10:56:43.335Z,999.57
2018-03-04T10:57:53.310Z,999.56
2018-03-04T10:59:02.409Z,999.56
2018-03-04T11:00:12.122Z,999.53
2018-03-04T11:01:21.565Z,999.55
2018-03-04T11:02:31.522Z,999.54
2018-03-04T11:03:41.242Z,999.54
2018-03-04T11:04:50.693Z,999.49
2018-03-04T11:06:00.687Z,999.54
2018-03-04T11:07:10.415Z,999.51
2018-03-04T11:08:20.401Z,999.62
2018-03-04T11:09:30.375Z,999.58
2018-03-04T11:10:40.461Z,999.57
2018-03-04T11:11:50.460Z,999.57
2018-03-04T11:12:59.908Z,999.55
2018-03-04T11:14:09.622Z,999.54
2018-03-04T11:15:19.676Z,999.56
2018-03-04T11:16:29.591Z,999.51
2018-03-04T11:17:39.567Z,999.52
2018-03-04T11:18:49.527Z,999.49
2018-03-04T11:19:59.250Z,999.48
2018-03-04T11:21:08.980Z,999.49
2018-03-04T11:22:18.180Z,999.5
2018-03-04T11:23:28.168Z,999.51
2018-03-04T11:24:37.895Z,999.46
2018-03-04T11:25:47.865Z,999.46
2018-03-04T11:26:57.577Z,999.43
2018-03-04T11:28:07.314Z,999.45
2018-03-04T11:29:16.261Z,999.47
2018-03-04T11:30:26.230Z,999.41
2018-03-04T11:31:35.689Z,999.48
2018-03-04T11:32:45.399Z,999.46
2018-03-04T11:33:55.431Z,999.42
2018-03-04T11:35:05.294Z,999.4
2018-03-04T11:36:15.008Z,999.39
2018-03-04T11:37:24.994Z,999.35
2018-03-04T11:38:34.719Z,999.38
2018-03-04T11:39:44.448Z,999.34
2018-03-04T11:40:53.910Z,999.26
2018-03-04T11:42:03.888Z,999.25
2018-03-04T11:43:13.855Z,999.32
2018-03-04T11:44:23.569Z,999.22
2018-03-04T11:45:33.010Z,999.25
2018-03-04T11:46:42.972Z,999.3
2018-03-04T11:47:52.957Z,999.32
2018-03-04T11:49:02.944Z,999.36
2018-03-04T11:50:12.409Z,999.31
2018-03-04T11:51:21.865Z,999.28
2018-03-04T11:52:31.868Z,999.31
2018-03-04T11:53:41.342Z,999.22
2018-03-04T11:54:51.351Z,999.23
2018-03-04T11:56:01.078Z,999.23
2018-03-04T11:57:11.043Z,999.24
2018-03-04T11:58:20.496Z,999.25
2018-03-04T11:59:30.489Z,999.24
2018-03-04T12:00:40.459Z,999.17
2018-03-04T12:01:50.180Z,999.21
2018-03-04T12:02:59.894Z,999.15
2018-03-04T12:04:09.349Z,999.08
2018-03-04T12:05:18.806Z,999.06
2018-03-04T12:06:28.775Z,999.07
2018-03-04T12:07:38.504Z,999.1
2018-03-04T12:08:48.478Z,999.12
2018-03-04T12:09:57.932Z,999.09
2018-03-04T12:11:07.646Z,999.06
2018-03-04T12:12:17.887Z,999.01
2018-03-04T12:13:27.598Z,999.01
2018-03-04T12:14:37.723Z,999.02
2018-03-04T12:15:47.733Z,999
2018-03-04T12:16:57.727Z,999.01
2018-03-04T12:18:07.731Z,998.99
2018-03-04T12:19:17.500Z,998.99
2018-03-04T12:20:27.622Z,998.97
2018-03-04T12:21:37.588Z,998.96
2018-03-04T12:22:47.063Z,998.99
2018-03-04T12:23:56.860Z,998.94
2018-03-04T12:25:06.408Z,998.92
2018-03-04T12:26:16.392Z,998.88
2018-03-04T12:27:26.371Z,998.91
2018-03-04T12:28:36.353Z,998.91
2018-03-04T12:29:46.134Z,998.91
2018-03-04T12:30:55.945Z,998.83
2018-03-04T12:32:05.185Z,998.84
2018-03-04T12:33:15.190Z,998.87
2018-03-04T12:34:24.664Z,998.84
2018-03-04T12:35:34.392Z,998.84
2018-03-04T12:36:44.181Z,998.83
2018-03-04T12:37:53.905Z,998.82
2018-03-04T12:39:03.371Z,998.82
2018-03-04T12:40:13.114Z,998.79
2018-03-04T12:41:23.078Z,998.7
2018-03-04T12:42:32.785Z,998.7
2018-03-04T12:43:42.754Z,998.64
2018-03-04T12:44:52.461Z,998.67
2018-03-04T12:46:02.210Z,998.67
2018-03-04T12:47:12.168Z,998.65
2018-03-04T12:48:22.139Z,998.68
2018-03-04T12:49:31.601Z,998.66
2018-03-04T12:50:41.325Z,998.61
2018-03-04T12:51:51.348Z,998.6
2018-03-04T12:53:00.814Z,998.54
2018-03-04T12:54:10.802Z,998.57
2018-03-04T12:55:20.818Z,998.56
2018-03-04T12:56:30.913Z,998.61
2018-03-04T12:57:40.647Z,998.67
2018-03-04T12:58:50.811Z,998.63
2018-03-04T13:00:00.538Z,998.66
2018-03-04T13:01:10.269Z,998.72
2018-03-04T13:02:20.397Z,998.73
2018-03-04T13:03:30.375Z,998.73
2018-03-04T13:04:40.087Z,998.79
2018-03-04T13:05:49.537Z,998.78
2018-03-04T13:06:59.281Z,998.75
2018-03-04T13:08:09.256Z,998.74
2018-03-04T13:09:19.233Z,998.76
2018-03-04T13:10:29.233Z,998.71
2018-03-04T13:11:39.207Z,998.69
2018-03-04T13:12:49.200Z,998.68
2018-03-04T13:13:59.175Z,998.66
2018-03-04T13:15:08.646Z,998.66
2018-03-04T13:16:18.630Z,998.66
2018-03-04T13:17:28.347Z,998.65
2018-03-04T13:18:38.068Z,998.66
2018-03-04T13:19:47.525Z,998.65
2018-03-04T13:20:57.244Z,998.63
2018-03-04T13:22:07.211Z,998.61
2018-03-04T13:23:17.239Z,998.64
2018-03-04T13:24:27.212Z,998.62
2018-03-04T13:25:37.180Z,998.61
2018-03-04T13:26:46.639Z,998.6
2018-03-04T13:27:56.347Z,998.56
2018-03-04T13:29:06.321Z,998.54
2018-03-04T13:30:16.315Z,998.47
2018-03-04T13:31:25.763Z,998.48
2018-03-04T13:32:35.492Z,998.46
2018-03-04T13:33:45.211Z,998.45
2018-03-04T13:34:55.188Z,998.43
2018-03-04T13:36:04.961Z,998.47
2018-03-04T13:37:15.086Z,998.44
2018-03-04T13:38:25.076Z,998.43
2018-03-04T13:39:34.811Z,998.42
2018-03-04T13:40:44.007Z,998.45
2018-03-04T13:41:53.475Z,998.44
2018-03-04T13:43:03.210Z,998.41
2018-03-04T13:44:13.204Z,998.44
2018-03-04T13:45:22.665Z,998.46
2018-03-04T13:46:32.728Z,998.42
2018-03-04T13:47:42.208Z,998.37
2018-03-04T13:48:52.196Z,998.27
2018-03-04T13:50:01.910Z,998.32
2018-03-04T13:51:11.642Z,998.26
2018-03-04T13:52:21.627Z,998.28
2018-03-04T13:53:31.350Z,998.19
2018-03-04T13:54:41.312Z,998.26
2018-03-04T13:55:51.284Z,998.24
2018-03-04T13:57:01.258Z,998.16
2018-03-04T13:58:11.237Z,998.23
2018-03-04T13:59:20.949Z,998.12
2018-03-04T14:00:30.965Z,998.21
2018-03-04T14:01:40.697Z,998.22
2018-03-04T14:02:50.686Z,998.24
2018-03-04T14:04:00.696Z,998.24
2018-03-04T14:05:10.176Z,998.23
2018-03-04T14:06:19.894Z,998.27
2018-03-04T14:07:29.616Z,998.23
2018-03-04T14:08:39.587Z,998.23
2018-03-04T14:09:49.305Z,998.18
2018-03-04T14:10:59.010Z,998.16
2018-03-04T14:12:08.769Z,998.15
2018-03-04T14:13:18.225Z,998.13
2018-03-04T14:14:28.210Z,998.14